Time;durP1;ratioP1;P1;durP2;ratioP2;P2;SDS_P1;SDS_P2;PMS_P1;PMS_P2;Temp;Humidity;BMP_temperature;BMP_pressure;BME280_temperature;BME280_humidity;BME280_pressure;Samples;Min_cycle;Max_cycle;Signal;HPM_P1;HPM_P2
2022/08/03 00:01:40;;;;;;;2.83;1.70;;;;;;;;;;5064638;28;20071;-80
2022/08/03 00:04:07;;;;;;;2.80;1.73;;;;;;;;;;5071873;28;20056;-80
2022/08/03 00:06:33;;;;;;;3.55;1.77;;;;;;;;;;5070309;28;20035;-81
2022/08/03 00:08:59;;;;;;;2.03;1.83;;;;;;;;;;5053934;28;20025;-82
2022/08/03 00:11:25;;;;;;;2.97;1.88;;;;;;;;;;5069893;28;20076;-82
2022/08/03 00:13:51;;;;;;;2.55;1.77;;;;;;;;;;5086556;28;20026;-82
2022/08/03 00:16:18;;;;;;;2.70;1.75;;;;;;;;;;5085997;28;20120;-80
2022/08/03 00:18:44;;;;;;;1.98;1.67;;;;;;;;;;5087442;28;20474;-82
2022/08/03 00:21:10;;;;;;;2.10;1.50;;;;;;;;;;5086322;28;20123;-81
2022/08/03 00:23:36;;;;;;;2.63;1.85;;;;;;;;;;5071269;28;20045;-80
2022/08/03 00:26:02;;;;;;;3.20;1.55;;;;;;;;;;5068586;28;20033;-80
2022/08/03 00:28:28;;;;;;;2.75;1.65;;;;;;;;;;5071690;28;20111;-81
2022/08/03 00:30:57;;;;;;;1.90;1.80;;;;;;;;;;5053671;28;20516;-81
2022/08/03 00:33:23;;;;;;;1.83;1.67;;;;;;;;;;5056318;28;20024;-80
2022/08/03 00:35:49;;;;;;;2.00;1.73;;;;;;;;;;5053350;28;20073;-80
2022/08/03 00:38:15;;;;;;;2.60;1.70;;;;;;;;;;5053737;28;20489;-80
2022/08/03 00:40:40;;;;;;;2.53;1.60;;;;;;;;;;5071346;28;20057;-80
2022/08/03 00:43:07;;;;;;;2.75;1.90;;;;;;;;;;5071112;28;20028;-82
2022/08/03 00:45:40;;;;;;;1.90;1.58;;;;;;;;;;5053347;28;20486;-81
2022/08/03 00:48:07;;;;;;;1.92;1.70;;;;;;;;;;5049874;28;20103;-81
2022/08/03 00:50:34;;;;;;;2.25;1.58;;;;;;;;;;5065008;28;20029;-80
2022/08/03 00:53:01;;;;;;;1.73;1.55;;;;;;;;;;5090173;28;20025;-80
2022/08/03 00:55:28;;;;;;;2.03;1.75;;;;;;;;;;5088700;28;20066;-81
2022/08/03 00:57:54;;;;;;;2.13;1.85;;;;;;;;;;5074361;28;20025;-81
2022/08/03 01:00:22;;;;;;;2.20;1.70;;;;;;;;;;5073957;28;20031;-81
2022/08/03 01:02:50;;;;;;;2.28;1.55;;;;;;;;;;5056526;28;20341;-81
2022/08/03 01:05:16;;;;;;;1.95;1.77;;;;;;;;;;5088541;28;20043;-81
2022/08/03 01:07:54;;;;;;;1.80;1.70;;;;;;;;;;5073993;28;20052;-81
2022/08/03 01:10:32;;;;;;;1.80;1.70;;;;;;;;;;5072240;28;20027;-81
2022/08/03 01:13:21;;;;;;;2.25;1.85;;;;;;;;;;5073640;28;20413;-81
2022/08/03 01:15:58;;;;;;;1.90;1.70;;;;;;;;;;5089126;28;20325;-81
2022/08/03 01:18:24;;;;;;;2.75;1.60;;;;;;;;;;5090472;28;20073;-80
2022/08/03 01:20:52;;;;;;;3.50;1.70;;;;;;;;;;5089326;28;20025;-81
2022/08/03 01:23:31;;;;;;;3.00;1.60;;;;;;;;;;5089909;28;20052;-81
2022/08/03 01:26:00;;;;;;;2.45;1.77;;;;;;;;;;5058590;28;20063;-81
2022/08/03 01:28:29;;;;;;;2.63;1.83;;;;;;;;;;5074478;28;20027;-81
2022/08/03 01:30:58;;;;;;;2.83;1.73;;;;;;;;;;5054199;28;20351;-81
2022/08/03 01:33:27;;;;;;;2.20;1.70;;;;;;;;;;5074314;28;20064;-81
2022/08/03 01:35:59;;;;;;;1.98;1.65;;;;;;;;;;5054901;28;20024;-80
2022/08/03 01:38:28;;;;;;;1.92;1.48;;;;;;;;;;5056197;28;20032;-81
2022/08/03 01:40:55;;;;;;;5.53;1.90;;;;;;;;;;5055423;28;20435;-81
2022/08/03 01:43:26;;;;;;;3.03;1.85;;;;;;;;;;5056203;28;20030;-81
2022/08/03 01:45:54;;;;;;;3.53;1.70;;;;;;;;;;5072957;28;20077;-81
2022/08/03 01:48:20;;;;;;;3.95;1.65;;;;;;;;;;5055991;28;20104;-81
2022/08/03 01:50:50;;;;;;;2.70;1.58;;;;;;;;;;5053769;28;20078;-80
2022/08/03 01:53:18;;;;;;;2.20;2.00;;;;;;;;;;5088776;28;20093;-80
2022/08/03 01:55:46;;;;;;;2.80;1.95;;;;;;;;;;5069505;28;20044;-80
2022/08/03 01:58:13;;;;;;;1.90;1.73;;;;;;;;;;5046046;28;20060;-82
2022/08/03 02:00:40;;;;;;;2.55;1.60;;;;;;;;;;5064862;28;20043;-81
2022/08/03 02:03:06;;;;;;;2.97;1.83;;;;;;;;;;5055454;28;20056;-81
2022/08/03 02:05:33;;;;;;;2.15;1.60;;;;;;;;;;5067524;28;20033;-81
2022/08/03 02:08:00;;;;;;;2.55;1.83;;;;;;;;;;5061807;28;20024;-80
2022/08/03 02:10:26;;;;;;;1.70;1.60;;;;;;;;;;5073234;28;20024;-81
2022/08/03 02:12:53;;;;;;;2.08;1.70;;;;;;;;;;5061261;28;20033;-80
2022/08/03 02:15:19;;;;;;;2.00;1.63;;;;;;;;;;5070871;28;20063;-81
2022/08/03 02:17:46;;;;;;;1.60;1.50;;;;;;;;;;5073218;28;20103;-80
2022/08/03 02:20:13;;;;;;;1.70;1.60;;;;;;;;;;5066539;28;20028;-80
2022/08/03 02:22:40;;;;;;;3.65;2.10;;;;;;;;;;5054356;28;20386;-81
2022/08/03 02:25:07;;;;;;;4.18;1.73;;;;;;;;;;5053993;28;20044;-80
2022/08/03 02:27:34;;;;;;;2.15;1.70;;;;;;;;;;5055128;28;20052;-80
2022/08/03 02:30:05;;;;;;;2.28;1.88;;;;;;;;;;5072332;28;20028;-81
2022/08/03 02:32:33;;;;;;;3.78;2.70;;;;;;;;;;5038313;28;20478;-80
2022/08/03 02:35:00;;;;;;;2.13;1.85;;;;;;;;;;5052538;28;20096;-81
2022/08/03 02:37:28;;;;;;;3.13;1.92;;;;;;;;;;5067771;28;20522;-81
2022/08/03 02:39:57;;;;;;;3.03;1.90;;;;;;;;;;5067983;28;20226;-82
2022/08/03 02:42:24;;;;;;;2.33;1.98;;;;;;;;;;5067877;28;20102;-81
2022/08/03 02:44:50;;;;;;;3.08;1.90;;;;;;;;;;5068030;28;20040;-80
2022/08/03 02:47:19;;;;;;;2.30;1.77;;;;;;;;;;5068635;28;20031;-81
2022/08/03 02:49:50;;;;;;;2.10;1.88;;;;;;;;;;5054410;28;20237;-80
2022/08/03 02:52:17;;;;;;;1.95;1.73;;;;;;;;;;5052999;28;20040;-80
2022/08/03 02:54:43;;;;;;;2.72;2.03;;;;;;;;;;5087861;28;20033;-81
2022/08/03 02:57:10;;;;;;;2.05;1.73;;;;;;;;;;5087278;28;20025;-81
2022/08/03 02:59:37;;;;;;;1.95;1.60;;;;;;;;;;5087003;28;20024;-81
2022/08/03 03:02:03;;;;;;;3.15;1.90;;;;;;;;;;5085997;28;20025;-81
2022/08/03 03:04:30;;;;;;;1.95;1.75;;;;;;;;;;5087716;28;20441;-81
2022/08/03 03:06:56;;;;;;;2.72;2.05;;;;;;;;;;5064535;28;20078;-81
2022/08/03 03:09:23;;;;;;;2.63;2.00;;;;;;;;;;5048128;28;20478;-81
2022/08/03 03:11:50;;;;;;;4.55;2.08;;;;;;;;;;5058927;28;20021;-81
2022/08/03 03:14:17;;;;;;;3.13;2.47;;;;;;;;;;5053568;28;20479;-81
2022/08/03 03:16:44;;;;;;;2.85;1.70;;;;;;;;;;5054120;28;20476;-81
2022/08/03 03:19:11;;;;;;;2.67;1.90;;;;;;;;;;5054356;28;20012;-82
2022/08/03 03:21:37;;;;;;;3.03;1.80;;;;;;;;;;5054275;28;20025;-80
2022/08/03 03:24:04;;;;;;;2.03;1.70;;;;;;;;;;5052530;28;20044;-81
2022/08/03 03:26:30;;;;;;;2.13;1.77;;;;;;;;;;5034181;28;20045;-81
2022/08/03 03:28:56;;;;;;;3.15;1.83;;;;;;;;;;5034343;28;20017;-81
2022/08/03 03:31:22;;;;;;;2.30;1.83;;;;;;;;;;5043565;28;20013;-80
2022/08/03 03:33:48;;;;;;;2.75;1.90;;;;;;;;;;5072105;28;20471;-80
2022/08/03 03:36:14;;;;;;;2.83;1.90;;;;;;;;;;5086649;28;20466;-81
2022/08/03 03:38:40;;;;;;;3.45;1.92;;;;;;;;;;5087583;28;20032;-81
2022/08/03 03:41:07;;;;;;;2.38;1.85;;;;;;;;;;5071387;28;20028;-81
2022/08/03 03:43:33;;;;;;;2.78;2.05;;;;;;;;;;5087587;28;20017;-80
2022/08/03 03:45:59;;;;;;;3.88;2.10;;;;;;;;;;5071208;28;20028;-80
2022/08/03 03:48:25;;;;;;;2.55;2.00;;;;;;;;;;5053943;28;20025;-81
2022/08/03 03:50:51;;;;;;;3.33;2.03;;;;;;;;;;5070589;28;20047;-80
2022/08/03 03:53:17;;;;;;;4.55;1.98;;;;;;;;;;5054025;28;20255;-81
2022/08/03 03:55:44;;;;;;;3.22;1.80;;;;;;;;;;5070995;28;20021;-81
2022/08/03 03:58:10;;;;;;;1.77;1.60;;;;;;;;;;5053124;28;20028;-81
2022/08/03 04:00:36;;;;;;;1.60;1.50;;;;;;;;;;5053988;28;20039;-81
2022/08/03 04:03:02;;;;;;;2.60;1.60;;;;;;;;;;5072137;28;20024;-80
2022/08/03 04:11:05;;;;;;;1.73;1.55;;;;;;;;;;5070561;28;20040;-81
2022/08/03 04:13:33;;;;;;;2.00;1.60;;;;;;;;;;5051642;28;20359;-81
2022/08/03 04:16:00;;;;;;;4.03;1.70;;;;;;;;;;5054440;28;20025;-81
2022/08/03 04:18:27;;;;;;;2.65;1.48;;;;;;;;;;5087038;28;20038;-80
2022/08/03 04:20:55;;;;;;;3.17;1.48;;;;;;;;;;5087215;28;20025;-81
2022/08/03 04:23:21;;;;;;;1.85;1.40;;;;;;;;;;5088197;28;20113;-80
2022/08/03 04:25:49;;;;;;;2.15;1.70;;;;;;;;;;5073808;28;20410;-80
2022/08/03 04:28:15;;;;;;;1.60;1.50;;;;;;;;;;5090675;28;20421;-81
2022/08/03 04:30:46;;;;;;;1.70;1.40;;;;;;;;;;5082278;28;20029;-81
2022/08/03 04:33:13;;;;;;;1.58;1.30;;;;;;;;;;5057218;28;20066;-80
2022/08/03 04:35:40;;;;;;;1.75;1.60;;;;;;;;;;5057025;28;20106;-80
2022/08/03 04:38:07;;;;;;;2.17;1.65;;;;;;;;;;5057284;28;20490;-81
2022/08/03 04:40:34;;;;;;;2.22;1.33;;;;;;;;;;5057206;28;20116;-81
2022/08/03 04:43:00;;;;;;;1.70;1.17;;;;;;;;;;5074839;28;20020;-81
2022/08/03 04:45:30;;;;;;;3.15;1.80;;;;;;;;;;5056964;28;20029;-81
2022/08/03 04:47:56;;;;;;;1.48;1.38;;;;;;;;;;5074815;28;20041;-81
2022/08/03 04:50:23;;;;;;;2.50;2.22;;;;;;;;;;5057110;28;20020;-81
2022/08/03 04:52:49;;;;;;;3.63;1.90;;;;;;;;;;5074865;28;20348;-81
2022/08/03 04:55:27;;;;;;;2.15;1.50;;;;;;;;;;5073185;28;20237;-80
2022/08/03 04:57:53;;;;;;;3.28;1.80;;;;;;;;;;5073237;28;20031;-80
2022/08/03 05:00:20;;;;;;;3.20;1.80;;;;;;;;;;5072992;28;20032;-80
2022/08/03 05:02:46;;;;;;;2.90;1.92;;;;;;;;;;5038604;28;20062;-81
2022/08/03 05:05:12;;;;;;;3.60;2.03;;;;;;;;;;5069552;28;20048;-81
2022/08/03 05:07:38;;;;;;;3.65;1.90;;;;;;;;;;5063935;28;20024;-80
2022/08/03 05:10:05;;;;;;;2.92;2.00;;;;;;;;;;5074675;28;20064;-82
2022/08/03 05:12:31;;;;;;;2.63;2.05;;;;;;;;;;5087951;28;20393;-81
2022/08/03 05:14:57;;;;;;;1.92;1.75;;;;;;;;;;5089114;28;20020;-80
2022/08/03 05:17:23;;;;;;;2.83;1.90;;;;;;;;;;5073374;28;20104;-81
2022/08/03 05:19:49;;;;;;;2.72;2.03;;;;;;;;;;5089868;28;20029;-81
2022/08/03 05:22:15;;;;;;;4.18;1.88;;;;;;;;;;5073505;28;20020;-81
2022/08/03 05:24:41;;;;;;;3.20;1.75;;;;;;;;;;5074139;28;20044;-81
2022/08/03 05:27:07;;;;;;;4.82;2.00;;;;;;;;;;5087801;28;20060;-82
2022/08/03 05:29:33;;;;;;;4.35;1.88;;;;;;;;;;5056415;28;20029;-82
2022/08/03 05:32:00;;;;;;;3.67;2.53;;;;;;;;;;5050690;28;20036;-81
2022/08/03 05:34:26;;;;;;;2.65;1.65;;;;;;;;;;5089334;28;20020;-80
2022/08/03 05:36:52;;;;;;;2.25;1.80;;;;;;;;;;5088931;28;20466;-80
2022/08/03 05:39:18;;;;;;;3.13;1.52;;;;;;;;;;5074141;28;20056;-81
2022/08/03 05:41:44;;;;;;;4.15;2.08;;;;;;;;;;5088923;28;20016;-80
2022/08/03 05:44:10;;;;;;;4.75;1.73;;;;;;;;;;5089342;28;20047;-81
2022/08/03 05:46:36;;;;;;;8.13;1.60;;;;;;;;;;5088069;28;20027;-81
2022/08/03 05:49:02;;;;;;;2.85;1.55;;;;;;;;;;5073836;28;20017;-81
2022/08/03 05:51:28;;;;;;;3.17;1.50;;;;;;;;;;5054841;28;20539;-81
2022/08/03 05:53:54;;;;;;;4.15;1.50;;;;;;;;;;5073307;28;20021;-80
2022/08/03 05:56:24;;;;;;;4.53;1.63;;;;;;;;;;5089242;28;20048;-81
2022/08/03 05:58:51;;;;;;;2.95;1.40;;;;;;;;;;5069218;28;20096;-81
2022/08/03 06:01:17;;;;;;;3.50;1.83;;;;;;;;;;5053055;28;20021;-80
2022/08/03 06:03:43;;;;;;;4.30;2.20;;;;;;;;;;5071574;28;20025;-80
2022/08/03 06:06:10;;;;;;;6.93;2.50;;;;;;;;;;5071638;28;20078;-80
2022/08/03 06:08:36;;;;;;;2.75;1.63;;;;;;;;;;5043279;28;20032;-81
2022/08/03 06:11:02;;;;;;;3.55;1.65;;;;;;;;;;5073254;28;20028;-81
2022/08/03 06:13:28;;;;;;;4.43;1.70;;;;;;;;;;5055170;28;20027;-81
2022/08/03 06:15:54;;;;;;;2.40;1.48;;;;;;;;;;5055344;28;20471;-82
2022/08/03 06:18:20;;;;;;;2.85;1.40;;;;;;;;;;5055397;28;20420;-81
2022/08/03 06:20:46;;;;;;;2.58;1.50;;;;;;;;;;5054822;28;20028;-81
2022/08/03 06:23:12;;;;;;;3.40;1.40;;;;;;;;;;5054682;28;20359;-81
2022/08/03 06:25:38;;;;;;;3.40;1.40;;;;;;;;;;5054621;28;20039;-81
2022/08/03 06:28:04;;;;;;;1.30;1.20;;;;;;;;;;5073014;28;20105;-81
2022/08/03 06:30:30;;;;;;;2.25;1.60;;;;;;;;;;5072322;28;20036;-81
2022/08/03 06:32:56;;;;;;;2.65;1.40;;;;;;;;;;5057254;28;20530;-81
2022/08/03 06:35:22;;;;;;;5.47;1.45;;;;;;;;;;5072472;28;20064;-81
2022/08/03 06:37:49;;;;;;;2.10;1.33;;;;;;;;;;5085230;28;20032;-80
2022/08/03 06:40:19;;;;;;;3.30;1.67;;;;;;;;;;5086590;28;20029;-82
2022/08/03 06:42:45;;;;;;;2.33;1.30;;;;;;;;;;5071405;28;20158;-81
2022/08/03 06:45:11;;;;;;;1.63;1.15;;;;;;;;;;5070550;28;20072;-81
2022/08/03 06:47:38;;;;;;;3.20;1.08;;;;;;;;;;5071172;28;20032;-81
2022/08/03 06:50:04;;;;;;;1.30;1.17;;;;;;;;;;5054442;28;20024;-82
2022/08/03 06:52:30;;;;;;;2.55;1.27;;;;;;;;;;5085515;28;20162;-81
2022/08/03 06:54:57;;;;;;;1.17;1.08;;;;;;;;;;5072525;28;20119;-81
2022/08/03 06:57:23;;;;;;;2.40;1.13;;;;;;;;;;5071696;28;20486;-81
2022/08/03 06:59:49;;;;;;;2.15;1.20;;;;;;;;;;5072524;28;20043;-81
2022/08/03 07:02:15;;;;;;;2.13;1.40;;;;;;;;;;5071615;28;20379;-81
2022/08/03 07:04:41;;;;;;;2.60;1.13;;;;;;;;;;5087307;28;20121;-81
2022/08/03 07:07:07;;;;;;;1.85;1.10;;;;;;;;;;5086198;28;20021;-81
2022/08/03 07:09:33;;;;;;;1.60;1.00;;;;;;;;;;5072902;28;20648;-81
2022/08/03 07:12:01;;;;;;;1.58;1.25;;;;;;;;;;5063520;28;20024;-81
2022/08/03 07:14:27;;;;;;;1.33;1.10;;;;;;;;;;5071822;28;20016;-81
2022/08/03 07:16:53;;;;;;;1.10;1.00;;;;;;;;;;5070559;28;20021;-81
2022/08/03 07:19:18;;;;;;;2.42;1.13;;;;;;;;;;5071090;28;20100;-81
2022/08/03 07:21:45;;;;;;;1.13;1.05;;;;;;;;;;5066452;28;20033;-81
2022/08/03 07:24:11;;;;;;;1.25;0.93;;;;;;;;;;5054123;28;20501;-80
2022/08/03 07:26:36;;;;;;;1.65;1.10;;;;;;;;;;5046488;28;20032;-82
2022/08/03 07:29:02;;;;;;;1.70;1.17;;;;;;;;;;5087625;28;20070;-80
2022/08/03 07:31:29;;;;;;;1.20;1.10;;;;;;;;;;5069306;28;20450;-81
2022/08/03 07:33:55;;;;;;;1.77;1.00;;;;;;;;;;5070124;28;20017;-81
2022/08/03 07:36:21;;;;;;;2.20;1.00;;;;;;;;;;5085657;28;20028;-81
2022/08/03 07:38:47;;;;;;;1.25;1.13;;;;;;;;;;5048418;28;20020;-81
2022/08/03 07:41:13;;;;;;;1.80;1.13;;;;;;;;;;5085706;28;20035;-81
2022/08/03 07:43:39;;;;;;;2.60;1.40;;;;;;;;;;5055327;28;20082;-81
2022/08/03 07:46:05;;;;;;;2.90;1.20;;;;;;;;;;5082642;28;20037;-81
2022/08/03 07:48:30;;;;;;;1.27;1.17;;;;;;;;;;5051825;28;20028;-81
2022/08/03 07:50:56;;;;;;;2.00;1.17;;;;;;;;;;5052640;28;20033;-81
2022/08/03 07:53:22;;;;;;;1.42;1.30;;;;;;;;;;5053181;28;20056;-81
2022/08/03 07:55:48;;;;;;;1.58;1.20;;;;;;;;;;5086229;28;20040;-81
2022/08/03 07:58:16;;;;;;;3.53;1.23;;;;;;;;;;5074094;28;20032;-81
2022/08/03 08:00:43;;;;;;;1.00;0.98;;;;;;;;;;5089546;28;20055;-82
2022/08/03 08:03:09;;;;;;;2.03;1.33;;;;;;;;;;5088090;28;20031;-81
2022/08/03 08:05:36;;;;;;;3.13;1.42;;;;;;;;;;5073437;28;20119;-81
2022/08/03 08:08:03;;;;;;;2.83;1.30;;;;;;;;;;5055669;28;20024;-80
2022/08/03 08:10:29;;;;;;;1.85;1.27;;;;;;;;;;5089351;28;20093;-81
2022/08/03 08:12:55;;;;;;;3.00;1.40;;;;;;;;;;5068128;28;20013;-81
2022/08/03 08:15:21;;;;;;;2.10;1.30;;;;;;;;;;5075148;28;20020;-81
2022/08/03 08:17:49;;;;;;;1.67;1.20;;;;;;;;;;5089561;28;20017;-82
2022/08/03 08:20:16;;;;;;;1.10;1.00;;;;;;;;;;5075363;28;20021;-81
2022/08/03 08:22:42;;;;;;;2.42;1.08;;;;;;;;;;5074538;28;20016;-81
2022/08/03 08:25:09;;;;;;;1.50;1.27;;;;;;;;;;5091289;28;20040;-81
2022/08/03 08:27:40;;;;;;;0.90;0.90;;;;;;;;;;5072693;28;20028;-81
2022/08/03 08:30:06;;;;;;;1.48;1.13;;;;;;;;;;5088644;28;20573;-80
2022/08/03 08:32:36;;;;;;;1.98;1.00;;;;;;;;;;5055049;28;20466;-81
2022/08/03 08:35:02;;;;;;;1.80;1.10;;;;;;;;;;5066890;28;20436;-81
2022/08/03 08:37:28;;;;;;;1.02;0.93;;;;;;;;;;5055545;28;20239;-81
2022/08/03 08:39:55;;;;;;;2.25;1.15;;;;;;;;;;5073887;28;20036;-80
2022/08/03 08:42:21;;;;;;;1.55;1.13;;;;;;;;;;5089688;28;20104;-81
2022/08/03 08:44:47;;;;;;;0.93;0.90;;;;;;;;;;5072575;28;20596;-81
2022/08/03 08:47:14;;;;;;;1.25;1.05;;;;;;;;;;5055836;28;20023;-81
2022/08/03 08:49:40;;;;;;;1.20;1.10;;;;;;;;;;5089637;28;20107;-81
2022/08/03 08:52:07;;;;;;;1.88;1.20;;;;;;;;;;5055573;28;20470;-81
2022/08/03 08:54:34;;;;;;;1.55;1.10;;;;;;;;;;5055790;28;20396;-81
2022/08/03 08:57:02;;;;;;;1.70;1.10;;;;;;;;;;5072143;28;20099;-81
2022/08/03 08:59:28;;;;;;;2.38;1.10;;;;;;;;;;5073189;28;20029;-81
2022/08/03 09:01:57;;;;;;;2.25;1.15;;;;;;;;;;5073183;28;20020;-83
2022/08/03 09:04:24;;;;;;;1.45;1.20;;;;;;;;;;5055984;28;20033;-81
2022/08/03 09:06:50;;;;;;;1.10;1.00;;;;;;;;;;5054214;28;20024;-81
2022/08/03 09:09:16;;;;;;;2.38;1.20;;;;;;;;;;5088328;28;20102;-73
2022/08/03 09:11:42;;;;;;;2.63;1.10;;;;;;;;;;5088046;28;20056;-72
2022/08/03 09:14:09;;;;;;;2.50;0.98;;;;;;;;;;5073279;28;20028;-73
2022/08/03 09:16:35;;;;;;;3.70;1.20;;;;;;;;;;5072922;28;20025;-71
2022/08/03 09:19:12;;;;;;;1.45;1.05;;;;;;;;;;5074344;28;20079;-71
2022/08/03 09:21:38;;;;;;;2.63;1.40;;;;;;;;;;5076205;28;20064;-72
2022/08/03 09:24:05;;;;;;;1.98;1.17;;;;;;;;;;5073321;28;20097;-72
2022/08/03 09:26:33;;;;;;;2.15;1.30;;;;;;;;;;5089917;28;20033;-71
2022/08/03 09:29:03;;;;;;;2.55;1.45;;;;;;;;;;5072793;28;20074;-71
2022/08/03 09:31:30;;;;;;;1.73;1.10;;;;;;;;;;5073327;28;20378;-71
2022/08/03 09:33:58;;;;;;;2.78;1.05;;;;;;;;;;5072681;28;20036;-72
2022/08/03 09:36:34;;;;;;;1.17;1.05;;;;;;;;;;5072809;28;20020;-71
2022/08/03 09:39:03;;;;;;;1.88;1.20;;;;;;;;;;5073513;28;20035;-72
2022/08/03 09:41:29;;;;;;;2.30;1.35;;;;;;;;;;5087410;28;20021;-71
2022/08/03 09:43:56;;;;;;;1.38;1.20;;;;;;;;;;5054464;28;20025;-72
2022/08/03 09:46:22;;;;;;;1.23;1.13;;;;;;;;;;5073734;28;20417;-70
2022/08/03 09:48:48;;;;;;;1.27;1.00;;;;;;;;;;5072221;28;20025;-71
2022/08/03 09:51:17;;;;;;;2.47;1.23;;;;;;;;;;5073651;28;20054;-71
2022/08/03 09:53:46;;;;;;;2.22;1.27;;;;;;;;;;5072016;28;20498;-71
2022/08/03 09:56:13;;;;;;;1.48;1.20;;;;;;;;;;5088788;28;20420;-71
2022/08/03 09:58:46;;;;;;;2.55;1.00;;;;;;;;;;5072541;28;20039;-71
2022/08/03 10:01:12;;;;;;;1.67;1.20;;;;;;;;;;5088418;28;20021;-72
2022/08/03 10:03:39;;;;;;;1.20;1.00;;;;;;;;;;5089139;28;20611;-72
2022/08/03 10:06:18;;;;;;;2.50;1.02;;;;;;;;;;5088966;28;20032;-72
2022/08/03 10:08:45;;;;;;;1.90;1.20;;;;;;;;;;5070421;28;20364;-71
2022/08/03 10:11:11;;;;;;;2.60;0.90;;;;;;;;;;5088522;28;20028;-72
2022/08/03 10:13:37;;;;;;;4.90;1.08;;;;;;;;;;5072362;28;20017;-72
2022/08/03 10:16:04;;;;;;;2.78;0.95;;;;;;;;;;5073020;28;20017;-72
2022/08/03 10:18:30;;;;;;;1.63;0.93;;;;;;;;;;5072336;28;20027;-73
2022/08/03 10:21:02;;;;;;;1.95;1.13;;;;;;;;;;5085007;28;20108;-71
2022/08/03 10:23:29;;;;;;;2.97;1.15;;;;;;;;;;5063782;28;20398;-72
2022/08/03 10:25:58;;;;;;;2.38;0.90;;;;;;;;;;5072694;28;20398;-72
2022/08/03 10:28:23;;;;;;;;;;;;;;;;;;5073139;28;20088;-72
2022/08/03 10:30:51;;;;;;;1.85;1.08;;;;;;;;;;5073197;28;19999;-71
2022/08/03 10:33:18;;;;;;;1.10;0.95;;;;;;;;;;5072512;28;20063;-71
2022/08/03 10:35:47;;;;;;;1.73;1.30;;;;;;;;;;5072565;28;20077;-72
2022/08/03 10:38:17;;;;;;;1.33;1.00;;;;;;;;;;5069859;28;20372;-71
2022/08/03 10:40:43;;;;;;;2.58;1.50;;;;;;;;;;5071907;28;20039;-71
2022/08/03 10:43:12;;;;;;;1.48;1.00;;;;;;;;;;5072073;28;20462;-72
2022/08/03 10:45:41;;;;;;;1.45;1.20;;;;;;;;;;5072366;28;20090;-71
2022/08/03 10:48:07;;;;;;;2.63;1.30;;;;;;;;;;5071852;28;20375;-72
2022/08/03 10:50:34;;;;;;;3.22;1.50;;;;;;;;;;5072648;28;20028;-71
2022/08/03 10:53:01;;;;;;;1.60;1.17;;;;;;;;;;5069043;28;20012;-72
2022/08/03 10:58:38;;;;;;;1.60;1.13;;;;;;;;;;5071968;28;20528;-72
2022/08/03 11:01:05;;;;;;;2.97;1.50;;;;;;;;;;5056435;28;20107;-73
2022/08/03 11:03:31;;;;;;;1.75;1.35;;;;;;;;;;5075707;28;20024;-72
2022/08/03 11:06:20;;;;;;;1.80;1.25;;;;;;;;;;5071711;28;20024;-71
2022/08/03 11:08:46;;;;;;;3.05;1.30;;;;;;;;;;5067919;28;20035;-72
2022/08/03 11:11:18;;;;;;;1.45;1.30;;;;;;;;;;5086930;28;20028;-72
2022/08/03 11:14:03;;;;;;;2.17;1.33;;;;;;;;;;5069425;28;20150;-70
2022/08/03 11:16:30;;;;;;;2.78;1.20;;;;;;;;;;5086788;28;20111;-71
2022/08/03 11:18:56;;;;;;;1.73;1.23;;;;;;;;;;5087182;28;20188;-72
2022/08/03 11:21:42;;;;;;;1.50;1.40;;;;;;;;;;5087740;28;20025;-71
2022/08/03 11:24:08;;;;;;;4.28;1.30;;;;;;;;;;5086281;28;20103;-71
2022/08/03 11:26:34;;;;;;;1.83;1.30;;;;;;;;;;5072039;28;20502;-70
2022/08/03 11:29:19;;;;;;;2.40;1.27;;;;;;;;;;5070476;28;20027;-71
2022/08/03 11:31:45;;;;;;;2.70;1.30;;;;;;;;;;5086299;28;20028;-72
2022/08/03 11:34:14;;;;;;;2.65;1.23;;;;;;;;;;5060108;28;20379;-72
2022/08/03 11:36:59;;;;;;;1.17;0.88;;;;;;;;;;5068311;28;20091;-71
2022/08/03 11:39:39;;;;;;;3.95;1.40;;;;;;;;;;5067230;28;20035;-71
2022/08/03 11:42:23;;;;;;;1.08;0.98;;;;;;;;;;5087818;28;20128;-71
2022/08/03 11:44:50;;;;;;;2.28;1.30;;;;;;;;;;5087022;28;20048;-71
2022/08/03 11:47:17;;;;;;;3.05;1.10;;;;;;;;;;5071772;28;20025;-72
2022/08/03 11:49:44;;;;;;;3.20;1.02;;;;;;;;;;5075070;28;20036;-71
2022/08/03 11:52:10;;;;;;;2.45;1.02;;;;;;;;;;5071690;28;20024;-72
2022/08/03 11:54:39;;;;;;;2.08;1.20;;;;;;;;;;5071871;28;20029;-71
2022/08/03 11:57:06;;;;;;;1.55;1.10;;;;;;;;;;5071547;28;20027;-72
2022/08/03 11:59:32;;;;;;;3.50;1.30;;;;;;;;;;5061702;28;20363;-72
2022/08/03 12:02:08;;;;;;;2.63;1.33;;;;;;;;;;5071487;28;20460;-71
2022/08/03 12:04:57;;;;;;;1.20;1.10;;;;;;;;;;5086753;28;20021;-73
2022/08/03 12:07:22;;;;;;;;;;;;;;;;;;5051744;28;20025;-72
2022/08/03 12:10:08;;;;;;;1.92;0.98;;;;;;;;;;5033562;28;19931;-72
2022/08/03 12:12:34;;;;;;;2.53;1.17;;;;;;;;;;5053308;28;20140;-71
2022/08/03 12:15:00;;;;;;;3.08;1.20;;;;;;;;;;5086544;28;20144;-71
2022/08/03 12:17:33;;;;;;;2.45;1.20;;;;;;;;;;5070203;28;20071;-72
2022/08/03 12:19:59;;;;;;;2.13;1.10;;;;;;;;;;5069899;28;20531;-71
2022/08/03 12:22:33;;;;;;;3.25;1.15;;;;;;;;;;5069758;28;20017;-71
2022/08/03 12:24:59;;;;;;;3.33;1.10;;;;;;;;;;5083280;28;20051;-73
2022/08/03 12:27:28;;;;;;;2.72;1.23;;;;;;;;;;5068682;28;20375;-72
2022/08/03 12:29:55;;;;;;;2.40;1.30;;;;;;;;;;5068273;28;20471;-71
2022/08/03 12:32:21;;;;;;;2.42;1.08;;;;;;;;;;5069924;28;20025;-72
2022/08/03 12:34:48;;;;;;;1.70;1.00;;;;;;;;;;5070929;28;20036;-72
2022/08/03 12:37:14;;;;;;;1.77;1.13;;;;;;;;;;5086359;28;20052;-71
2022/08/03 12:39:40;;;;;;;1.38;1.05;;;;;;;;;;5057183;28;20040;-72
2022/08/03 12:42:06;;;;;;;2.75;1.20;;;;;;;;;;5051267;28;20021;-72
2022/08/03 12:44:34;;;;;;;1.63;1.00;;;;;;;;;;5052948;28;20510;-71
2022/08/03 12:47:01;;;;;;;2.78;1.02;;;;;;;;;;5055210;28;20025;-72
2022/08/03 12:49:28;;;;;;;2.45;1.00;;;;;;;;;;5073417;28;20020;-72
2022/08/03 12:51:54;;;;;;;2.88;1.10;;;;;;;;;;5075028;28;20028;-71
2022/08/03 12:54:21;;;;;;;1.67;1.00;;;;;;;;;;5072634;28;20016;-72
2022/08/03 12:56:56;;;;;;;2.63;1.30;;;;;;;;;;5074240;28;20039;-82
2022/08/03 12:59:36;;;;;;;1.45;1.00;;;;;;;;;;5074284;28;20059;-81
2022/08/03 13:02:03;;;;;;;2.97;0.75;;;;;;;;;;5063897;28;20063;-81
2022/08/03 13:04:30;;;;;;;1.58;1.10;;;;;;;;;;5083438;28;20033;-81
2022/08/03 13:06:57;;;;;;;2.55;0.98;;;;;;;;;;5067534;28;20032;-81
2022/08/03 13:09:25;;;;;;;1.15;1.08;;;;;;;;;;5074327;28;20023;-83
2022/08/03 13:12:04;;;;;;;2.63;1.17;;;;;;;;;;5085928;28;20075;-81
2022/08/03 13:14:30;;;;;;;1.80;0.80;;;;;;;;;;5070072;28;20083;-82
2022/08/03 13:16:56;;;;;;;1.77;0.90;;;;;;;;;;5072932;28;20426;-82
2022/08/03 13:19:22;;;;;;;4.68;1.00;;;;;;;;;;5046483;28;20029;-81
2022/08/03 13:21:48;;;;;;;1.55;0.90;;;;;;;;;;5038084;28;20390;-82
2022/08/03 13:24:14;;;;;;;2.85;0.93;;;;;;;;;;5089609;28;20174;-81
2022/08/03 13:26:40;;;;;;;4.45;1.05;;;;;;;;;;5074277;28;20039;-81
2022/08/03 13:29:06;;;;;;;0.75;0.70;;;;;;;;;;5055430;28;20020;-81
2022/08/03 13:31:32;;;;;;;1.17;0.93;;;;;;;;;;5054542;28;20017;-81
2022/08/03 13:33:58;;;;;;;1.52;0.93;;;;;;;;;;5053892;28;20073;-81
2022/08/03 13:36:24;;;;;;;3.75;0.93;;;;;;;;;;5089345;28;20078;-81
2022/08/03 13:38:50;;;;;;;2.83;0.98;;;;;;;;;;5088639;28;20032;-82
2022/08/03 13:41:16;;;;;;;1.27;0.90;;;;;;;;;;5074142;28;20414;-81
2022/08/03 13:43:42;;;;;;;1.15;0.80;;;;;;;;;;5073182;28;20020;-81
2022/08/03 13:46:08;;;;;;;3.65;1.02;;;;;;;;;;5074174;28;20032;-81
2022/08/03 13:48:34;;;;;;;3.15;1.20;;;;;;;;;;5087412;28;20550;-81
2022/08/03 13:51:00;;;;;;;1.48;0.90;;;;;;;;;;5089637;28;20059;-81
2022/08/03 13:53:26;;;;;;;3.47;0.77;;;;;;;;;;5071523;28;20052;-81
2022/08/03 13:55:52;;;;;;;2.00;0.90;;;;;;;;;;5088984;28;20054;-81
2022/08/03 13:58:18;;;;;;;2.80;1.00;;;;;;;;;;5088158;28;20061;-81
2022/08/03 14:00:44;;;;;;;1.50;1.02;;;;;;;;;;5088454;28;20107;-81
2022/08/03 14:03:10;;;;;;;1.42;0.80;;;;;;;;;;5073781;28;20090;-81
2022/08/03 14:05:37;;;;;;;1.35;0.70;;;;;;;;;;5073561;28;20470;-80
2022/08/03 14:08:05;;;;;;;1.52;0.93;;;;;;;;;;5072639;28;20082;-81
2022/08/03 14:10:35;;;;;;;2.33;0.73;;;;;;;;;;5055642;28;20036;-81
2022/08/03 14:13:01;;;;;;;1.25;0.85;;;;;;;;;;5053806;28;20071;-81
2022/08/03 14:15:27;;;;;;;1.13;0.90;;;;;;;;;;5073351;28;20032;-82
2022/08/03 14:17:54;;;;;;;3.25;0.90;;;;;;;;;;5088078;28;20116;-82
2022/08/03 14:20:20;;;;;;;0.93;0.80;;;;;;;;;;5088056;28;20020;-81
2022/08/03 14:22:46;;;;;;;1.98;0.90;;;;;;;;;;5088513;28;20165;-82
2022/08/03 14:25:12;;;;;;;1.25;0.82;;;;;;;;;;5071773;28;20033;-82
2022/08/03 14:27:37;;;;;;;1.15;0.90;;;;;;;;;;5086721;28;20020;-81
2022/08/03 14:30:04;;;;;;;1.77;0.90;;;;;;;;;;5084918;28;20165;-81
2022/08/03 14:32:30;;;;;;;0.88;0.73;;;;;;;;;;5054972;28;20486;-81
2022/08/03 14:34:56;;;;;;;1.65;0.80;;;;;;;;;;5047841;28;20030;-82
2022/08/03 14:37:25;;;;;;;1.67;1.05;;;;;;;;;;5072564;28;20027;-81
2022/08/03 14:39:54;;;;;;;3.05;0.80;;;;;;;;;;5072949;28;20032;-81
2022/08/03 14:42:22;;;;;;;2.25;0.70;;;;;;;;;;5058133;28;20119;-81
2022/08/03 14:44:48;;;;;;;1.33;0.80;;;;;;;;;;5065610;28;20043;-81
2022/08/03 14:47:17;;;;;;;1.40;0.70;;;;;;;;;;5047795;28;20445;-81
2022/08/03 14:49:43;;;;;;;;;;;;;;;;;;5049882;28;20029;-80
2022/08/03 14:52:09;;;;;;;2.80;0.90;;;;;;;;;;5067744;28;20446;-81
2022/08/03 14:54:35;;;;;;;2.17;0.82;;;;;;;;;;5064978;28;20087;-81